Time;durP1;ratioP1;P1;durP2;ratioP2;P2;SDS_P1;SDS_P2;PMS_P1;PMS_P2;Temp;Humidity;BMP_temperature;BMP_pressure;BME280_temperature;BME280_humidity;BME280_pressure;Samples;Min_cycle;Max_cycle;Signal;HPM_P1;HPM_P2
2021/03/26 00:01:30;;;;;;;25.25;8.63;;;;;;;;;;5136216;27;20087;-54
2021/03/26 00:03:57;;;;;;;13.68;7.28;;;;;;;;;;5135665;27;20368;-56
2021/03/26 00:06:28;;;;;;;12.95;7.47;;;;;;;;;;5137214;27;20027;-54
2021/03/26 00:08:55;;;;;;;18.58;8.60;;;;;;;;;;5135915;27;20434;-56
2021/03/26 00:11:22;;;;;;;9.73;7.05;;;;;;;;;;5115378;27;20058;-56
2021/03/26 00:13:48;;;;;;;12.27;7.65;;;;;;;;;;5135281;27;20035;-54
2021/03/26 00:16:13;;;;;;;13.63;7.55;;;;;;;;;;5138031;27;20423;-52
2021/03/26 00:18:38;;;;;;;12.40;7.00;;;;;;;;;;5134301;27;20031;-56
2021/03/26 00:21:05;;;;;;;10.48;7.32;;;;;;;;;;5134184;27;20523;-57
2021/03/26 00:23:30;;;;;;;10.02;7.03;;;;;;;;;;5134351;27;20228;-53
2021/03/26 00:25:56;;;;;;;10.40;6.78;;;;;;;;;;5134252;27;20605;-53
2021/03/26 00:28:21;;;;;;;19.48;8.30;;;;;;;;;;5136828;27;20092;-55
2021/03/26 00:30:47;;;;;;;12.00;7.25;;;;;;;;;;5135568;27;20039;-53
2021/03/26 00:33:12;;;;;;;8.25;6.70;;;;;;;;;;5136051;27;20069;-51
2021/03/26 00:35:39;;;;;;;13.73;7.53;;;;;;;;;;5135620;27;20939;-56
2021/03/26 00:51:50;;;;;;;11.63;7.38;;;;;;;;;;5134110;27;20127;-55
2021/03/26 00:54:17;;;;;;;14.23;8.40;;;;;;;;;;5133325;27;20071;-55
2021/03/26 00:56:44;;;;;;;17.20;8.40;;;;;;;;;;5133628;27;20031;-54
2021/03/26 00:59:09;;;;;;;10.30;7.85;;;;;;;;;;5134573;27;20061;-53
2021/03/26 01:01:35;;;;;;;13.98;7.93;;;;;;;;;;5114775;27;20046;-53
2021/03/26 01:04:00;;;;;;;10.77;7.10;;;;;;;;;;5134190;27;20035;-54
2021/03/26 01:06:26;;;;;;;14.77;8.15;;;;;;;;;;5133184;27;20074;-53
2021/03/26 01:08:51;;;;;;;11.43;7.05;;;;;;;;;;5133799;27;20031;-55
2021/03/26 01:11:25;;;;;;;13.48;7.32;;;;;;;;;;5133032;27;20376;-53
2021/03/26 01:13:50;;;;;;;9.70;6.90;;;;;;;;;;5133306;27;20042;-55
2021/03/26 01:16:17;;;;;;;15.18;7.95;;;;;;;;;;5134960;27;20072;-55
2021/03/26 01:18:44;;;;;;;16.58;7.50;;;;;;;;;;5133757;27;20027;-52
2021/03/26 01:21:13;;;;;;;13.85;8.00;;;;;;;;;;5133086;27;20035;-53
2021/03/26 01:23:40;;;;;;;10.98;7.93;;;;;;;;;;5132886;27;20055;-52
2021/03/26 01:26:05;;;;;;;12.05;7.45;;;;;;;;;;5133147;27;20073;-54
2021/03/26 01:28:31;;;;;;;14.73;8.20;;;;;;;;;;5132702;27;20463;-55
2021/03/26 01:30:57;;;;;;;11.52;7.47;;;;;;;;;;5132812;27;20361;-55
2021/03/26 01:33:23;;;;;;;13.57;7.30;;;;;;;;;;5132937;27;20345;-55
2021/03/26 01:35:50;;;;;;;14.82;7.72;;;;;;;;;;5134655;27;20037;-55
2021/03/26 01:38:16;;;;;;;13.30;7.72;;;;;;;;;;5132807;27;20038;-54
2021/03/26 01:40:43;;;;;;;12.63;8.43;;;;;;;;;;5133683;27;20067;-53
2021/03/26 01:43:19;;;;;;;18.48;7.82;;;;;;;;;;5132550;27;20035;-55
2021/03/26 01:45:44;;;;;;;18.23;8.52;;;;;;;;;;5133088;27;20027;-54
2021/03/26 01:48:13;;;;;;;13.30;7.82;;;;;;;;;;5132632;27;20091;-53
2021/03/26 01:50:39;;;;;;;11.05;7.70;;;;;;;;;;5133532;27;20035;-53
2021/03/26 01:53:07;;;;;;;15.55;9.18;;;;;;;;;;5135645;27;20118;-52
2021/03/26 01:55:37;;;;;;;15.00;7.97;;;;;;;;;;5134502;27;20046;-55
2021/03/26 01:58:03;;;;;;;18.33;7.63;;;;;;;;;;5132453;27;20083;-53
2021/03/26 02:00:34;;;;;;;9.98;7.35;;;;;;;;;;5133415;27;20128;-52
2021/03/26 02:03:25;;;;;;;12.35;7.50;;;;;;;;;;5134343;27;20018;-52
2021/03/26 02:05:53;;;;;;;11.93;7.60;;;;;;;;;;5123347;27;20043;-55
2021/03/26 02:08:38;;;;;;;25.10;7.85;;;;;;;;;;5132460;27;20027;-55
2021/03/26 02:11:12;;;;;;;12.43;7.97;;;;;;;;;;5135019;27;20106;-53
2021/03/26 02:13:39;;;;;;;10.18;7.53;;;;;;;;;;5131175;27;20095;-54
2021/03/26 02:16:07;;;;;;;11.35;8.30;;;;;;;;;;5132070;27;20047;-55
2021/03/26 02:18:35;;;;;;;15.85;8.45;;;;;;;;;;5131642;27;20034;-54
2021/03/26 02:21:07;;;;;;;12.50;8.07;;;;;;;;;;5131886;27;20037;-55
2021/03/26 02:23:36;;;;;;;12.20;8.20;;;;;;;;;;5132987;27;20027;-55
2021/03/26 02:26:04;;;;;;;12.70;8.30;;;;;;;;;;5126030;27;20031;-53
2021/03/26 02:28:29;;;;;;;12.10;8.23;;;;;;;;;;5131528;27;20031;-54
2021/03/26 02:30:58;;;;;;;11.77;8.00;;;;;;;;;;5131859;27;20031;-52
2021/03/26 02:33:25;;;;;;;13.13;7.95;;;;;;;;;;5131966;27;20031;-55
2021/03/26 02:36:11;;;;;;;10.70;8.10;;;;;;;;;;5132027;27;20035;-54
2021/03/26 02:38:39;;;;;;;13.95;8.25;;;;;;;;;;5131474;27;20127;-54
2021/03/26 02:41:22;;;;;;;18.40;9.55;;;;;;;;;;5132716;27;20038;-53
2021/03/26 02:44:13;;;;;;;14.23;8.55;;;;;;;;;;5123351;27;20029;-51
2021/03/26 02:46:44;;;;;;;14.20;8.98;;;;;;;;;;5132816;27;20030;-51
2021/03/26 02:49:20;;;;;;;14.90;9.05;;;;;;;;;;5131540;27;20046;-54
2021/03/26 02:52:15;;;;;;;15.30;9.38;;;;;;;;;;5133150;27;20038;-54
2021/03/26 02:54:50;;;;;;;14.07;7.95;;;;;;;;;;5116633;27;20273;-55
2021/03/26 02:57:21;;;;;;;13.90;7.95;;;;;;;;;;5112556;27;20050;-55
2021/03/26 03:00:07;;;;;;;;;;;;;;;;;;5131645;27;20495;-55
2021/03/26 03:02:33;;;;;;;9.77;8.13;;;;;;;;;;5120383;27;20028;-54
2021/03/26 03:05:06;;;;;;;16.35;9.05;;;;;;;;;;5133785;27;20069;-55
2021/03/26 03:07:35;;;;;;;15.45;9.10;;;;;;;;;;5131715;27;20050;-53
2021/03/26 03:10:20;;;;;;;15.45;9.52;;;;;;;;;;5131157;27;20024;-55
2021/03/26 03:12:48;;;;;;;14.93;8.93;;;;;;;;;;5125109;27;20118;-51
2021/03/26 03:15:18;;;;;;;16.17;8.73;;;;;;;;;;5132333;27;20035;-53
2021/03/26 03:18:04;;;;;;;14.52;9.80;;;;;;;;;;5131249;27;20041;-53
2021/03/26 03:20:53;;;;;;;13.57;8.05;;;;;;;;;;5124662;27;20027;-53
2021/03/26 03:23:31;;;;;;;14.10;9.38;;;;;;;;;;5131007;27;20031;-52
2021/03/26 03:26:01;;;;;;;14.82;9.60;;;;;;;;;;5131311;27;20036;-55
2021/03/26 03:28:44;;;;;;;12.23;8.70;;;;;;;;;;5130819;27;20039;-53
2021/03/26 03:31:32;;;;;;;13.95;8.95;;;;;;;;;;5130898;27;20031;-55
2021/03/26 03:34:16;;;;;;;11.68;9.48;;;;;;;;;;5131622;27;20045;-55
2021/03/26 03:36:53;;;;;;;12.95;9.45;;;;;;;;;;5130962;27;20410;-55
2021/03/26 03:39:30;;;;;;;15.85;8.82;;;;;;;;;;5130941;27;20023;-55
2021/03/26 03:42:05;;;;;;;15.10;9.60;;;;;;;;;;5131879;27;20038;-52
2021/03/26 03:44:35;;;;;;;14.15;8.02;;;;;;;;;;5131961;27;20058;-50
2021/03/26 03:47:19;;;;;;;14.95;9.65;;;;;;;;;;5131310;27;20042;-54
2021/03/26 03:49:48;;;;;;;13.38;10.13;;;;;;;;;;5133222;27;20035;-55
2021/03/26 03:52:31;;;;;;;12.23;9.55;;;;;;;;;;5131426;27;20058;-55
2021/03/26 03:55:12;;;;;;;16.42;9.32;;;;;;;;;;5133984;27;20031;-54
2021/03/26 03:57:50;;;;;;;14.77;9.57;;;;;;;;;;5130642;27;20038;-51
2021/03/26 04:00:21;;;;;;;18.95;10.40;;;;;;;;;;5130934;27;20088;-56
2021/03/26 04:03:19;;;;;;;16.85;9.10;;;;;;;;;;5116311;27;20019;-52
2021/03/26 04:06:07;;;;;;;19.48;9.50;;;;;;;;;;5132268;27;20043;-54
2021/03/26 04:08:45;;;;;;;18.40;9.48;;;;;;;;;;5130340;27;20036;-56
2021/03/26 04:11:15;;;;;;;20.50;10.80;;;;;;;;;;5131534;27;20479;-54
2021/03/26 04:13:47;;;;;;;13.55;9.45;;;;;;;;;;5130648;27;20035;-56
2021/03/26 04:16:18;;;;;;;14.88;10.52;;;;;;;;;;5132778;27;20030;-56
2021/03/26 04:18:52;;;;;;;17.77;9.55;;;;;;;;;;5131709;27;20027;-54
2021/03/26 04:21:24;;;;;;;14.00;10.20;;;;;;;;;;5130588;27;20494;-55
2021/03/26 04:23:56;;;;;;;23.05;10.75;;;;;;;;;;5131922;27;20039;-53
2021/03/26 04:26:44;;;;;;;16.65;10.52;;;;;;;;;;5130651;27;20027;-52
2021/03/26 04:29:37;;;;;;;17.73;10.48;;;;;;;;;;5133020;27;20135;-53
2021/03/26 04:32:05;;;;;;;15.85;10.60;;;;;;;;;;5130477;27;20035;-55
2021/03/26 04:34:31;;;;;;;14.32;11.30;;;;;;;;;;5130803;27;20031;-55
2021/03/26 04:37:15;;;;;;;15.73;10.25;;;;;;;;;;5133145;27;20034;-55
2021/03/26 04:39:55;;;;;;;20.10;11.18;;;;;;;;;;5134226;27;20490;-53
2021/03/26 04:42:33;;;;;;;15.98;11.48;;;;;;;;;;5136764;27;20041;-55
2021/03/26 04:45:31;;;;;;;18.85;10.40;;;;;;;;;;5134276;27;20086;-55
2021/03/26 04:48:04;;;;;;;15.82;11.27;;;;;;;;;;5134057;27;20464;-54
2021/03/26 04:50:34;;;;;;;15.90;11.52;;;;;;;;;;5133769;27;20539;-53
2021/03/26 04:53:07;;;;;;;20.42;11.25;;;;;;;;;;5134248;27;20101;-53
2021/03/26 04:55:37;;;;;;;15.25;11.15;;;;;;;;;;5134958;27;20106;-54
2021/03/26 04:58:11;;;;;;;15.88;11.40;;;;;;;;;;5134079;27;20402;-54
2021/03/26 05:00:53;;;;;;;23.33;11.40;;;;;;;;;;5134104;27;20095;-56
2021/03/26 05:03:28;;;;;;;17.10;11.57;;;;;;;;;;5135632;27;20472;-55
2021/03/26 05:06:10;;;;;;;17.98;11.85;;;;;;;;;;5141042;27;20042;-54
2021/03/26 05:08:41;;;;;;;16.45;11.77;;;;;;;;;;5133593;27;20042;-51
2021/03/26 05:11:09;;;;;;;16.38;11.75;;;;;;;;;;5133748;27;20031;-56
2021/03/26 05:13:49;;;;;;;18.23;11.82;;;;;;;;;;5133214;27;20080;-55
2021/03/26 05:16:28;;;;;;;19.98;11.68;;;;;;;;;;5133844;27;20066;-55
2021/03/26 05:19:02;;;;;;;19.58;12.63;;;;;;;;;;5133670;27;20027;-55
2021/03/26 05:21:37;;;;;;;15.82;12.10;;;;;;;;;;5132939;27;20054;-50
2021/03/26 05:24:13;;;;;;;19.70;12.45;;;;;;;;;;5114241;27;20045;-56
2021/03/26 05:26:39;;;;;;;24.30;12.68;;;;;;;;;;5135265;27;20035;-53
2021/03/26 05:29:05;;;;;;;17.40;11.48;;;;;;;;;;5134662;27;20038;-53
2021/03/26 05:31:35;;;;;;;21.48;12.73;;;;;;;;;;5132886;27;20068;-56
2021/03/26 05:34:10;;;;;;;16.73;11.65;;;;;;;;;;5134956;27;20039;-55
2021/03/26 05:36:55;;;;;;;15.95;11.68;;;;;;;;;;5125085;27;20031;-55
2021/03/26 05:39:26;;;;;;;21.17;11.93;;;;;;;;;;5136469;27;20023;-54
2021/03/26 05:42:10;;;;;;;14.00;11.57;;;;;;;;;;5133849;27;20038;-54
2021/03/26 05:45:02;;;;;;;21.58;11.95;;;;;;;;;;5134559;27;20038;-53
2021/03/26 05:47:33;;;;;;;18.95;11.60;;;;;;;;;;5134783;27;20051;-55
2021/03/26 05:50:26;;;;;;;19.20;11.48;;;;;;;;;;5134043;27;20050;-56
2021/03/26 05:53:13;;;;;;;18.95;11.77;;;;;;;;;;5126701;27;20039;-52
2021/03/26 05:56:04;;;;;;;16.83;11.93;;;;;;;;;;5134150;27;20038;-56
2021/03/26 05:59:07;;;;;;;19.15;12.70;;;;;;;;;;5137503;27;20421;-55
2021/03/26 06:01:59;;;;;;;19.25;12.48;;;;;;;;;;5133612;27;20092;-54
2021/03/26 06:04:31;;;;;;;27.40;13.07;;;;;;;;;;5138453;27;20357;-54
2021/03/26 06:07:03;;;;;;;18.38;12.57;;;;;;;;;;5132332;27;20568;-55
2021/03/26 06:09:46;;;;;;;20.42;12.90;;;;;;;;;;5133674;27;20406;-56
2021/03/26 06:12:36;;;;;;;17.45;12.65;;;;;;;;;;5132360;27;20035;-56
2021/03/26 06:15:20;;;;;;;19.20;11.93;;;;;;;;;;5136943;27;20031;-53
2021/03/26 06:18:23;;;;;;;15.18;12.20;;;;;;;;;;5136226;27;20114;-55
2021/03/26 06:21:10;;;;;;;21.20;12.75;;;;;;;;;;5133487;27;20039;-55
2021/03/26 06:24:28;;;;;;;16.95;12.68;;;;;;;;;;5136660;27;20057;-52
2021/03/26 06:27:00;;;;;;;30.98;14.32;;;;;;;;;;5090863;27;20082;-55
2021/03/26 06:29:25;;;;;;;;;;;;;;;;;;5114554;27;20092;-54
2021/03/26 06:32:26;;;;;;;14.85;11.48;;;;;;;;;;5131683;27;19915;-56
2021/03/26 06:35:10;;;;;;;17.67;12.77;;;;;;;;;;5132263;27;20035;-56
2021/03/26 06:37:53;;;;;;;18.00;11.82;;;;;;;;;;5131024;27;20070;-54
2021/03/26 06:40:43;;;;;;;19.90;12.45;;;;;;;;;;5134442;27;20035;-56
2021/03/26 06:43:23;;;;;;;19.48;12.65;;;;;;;;;;5135776;27;20038;-54
2021/03/26 06:46:18;;;;;;;15.83;11.97;;;;;;;;;;5133002;27;20071;-56
2021/03/26 06:49:05;;;;;;;18.52;12.52;;;;;;;;;;5131309;27;20294;-58
2021/03/26 06:51:44;;;;;;;20.58;12.93;;;;;;;;;;5131215;27;20031;-55
2021/03/26 06:54:27;;;;;;;17.00;12.02;;;;;;;;;;5133654;27;20385;-52
2021/03/26 06:57:08;;;;;;;19.60;12.73;;;;;;;;;;5131800;27;20038;-52
2021/03/26 06:59:52;;;;;;;18.42;12.70;;;;;;;;;;5131281;27;20034;-56
2021/03/26 07:02:42;;;;;;;17.92;12.55;;;;;;;;;;5130823;27;20507;-53
2021/03/26 07:05:13;;;;;;;19.83;12.98;;;;;;;;;;5136339;27;20031;-55
2021/03/26 07:07:41;;;;;;;20.15;14.02;;;;;;;;;;5134378;27;20543;-55
2021/03/26 07:10:34;;;;;;;21.35;12.85;;;;;;;;;;5136062;27;20035;-56
2021/03/26 07:13:20;;;;;;;20.63;12.45;;;;;;;;;;5137125;27;20099;-55
2021/03/26 07:15:58;;;;;;;22.52;13.00;;;;;;;;;;5138458;27;20086;-53
2021/03/26 07:18:51;;;;;;;18.38;13.10;;;;;;;;;;5137606;27;20042;-55
2021/03/26 07:21:40;;;;;;;19.48;13.23;;;;;;;;;;5139132;27;20514;-55
2021/03/26 07:24:33;;;;;;;18.77;12.68;;;;;;;;;;5133220;27;20035;-54
2021/03/26 07:27:21;;;;;;;16.75;12.57;;;;;;;;;;5136562;27;20054;-52
2021/03/26 07:29:57;;;;;;;17.38;13.10;;;;;;;;;;5140600;27;20113;-54
2021/03/26 07:32:47;;;;;;;19.40;13.23;;;;;;;;;;5140116;27;20030;-56
2021/03/26 07:35:28;;;;;;;19.73;13.45;;;;;;;;;;5141336;27;20058;-53
2021/03/26 07:38:26;;;;;;;16.45;12.45;;;;;;;;;;5143975;27;20045;-55
2021/03/26 07:40:54;;;;;;;17.55;13.02;;;;;;;;;;5133634;27;20099;-53
2021/03/26 07:44:17;;;;;;;16.88;13.13;;;;;;;;;;5136756;27;20033;-55
2021/03/26 07:47:07;;;;;;;25.05;13.80;;;;;;;;;;5065095;28;20029;-54
2021/03/26 07:49:47;;;;;;;23.77;14.15;;;;;;;;;;5064779;28;20032;-51
2021/03/26 07:52:50;;;;;;;22.90;14.40;;;;;;;;;;5113372;27;20039;-55
2021/03/26 07:55:15;;;;;;;19.05;13.73;;;;;;;;;;5137908;27;20079;-54
2021/03/26 07:57:47;;;;;;;23.83;13.55;;;;;;;;;;5138036;27;20103;-55
2021/03/26 08:00:31;;;;;;;18.23;13.48;;;;;;;;;;5136835;27;20483;-54
2021/03/26 08:03:17;;;;;;;18.40;13.68;;;;;;;;;;5133906;27;20077;-55
2021/03/26 08:06:19;;;;;;;18.80;14.52;;;;;;;;;;5134522;27;20043;-56
2021/03/26 08:09:09;;;;;;;21.58;13.65;;;;;;;;;;5134863;27;20054;-53
2021/03/26 08:12:14;;;;;;;20.40;13.60;;;;;;;;;;5133430;27;20035;-52
2021/03/26 08:14:57;;;;;;;20.67;13.40;;;;;;;;;;5135461;27;20031;-49
2021/03/26 08:17:33;;;;;;;20.05;14.90;;;;;;;;;;5134203;27;20049;-52
2021/03/26 08:20:01;;;;;;;21.75;14.15;;;;;;;;;;5136235;27;20102;-54
2021/03/26 08:22:51;;;;;;;18.92;13.70;;;;;;;;;;5133331;27;20087;-55
2021/03/26 08:25:35;;;;;;;20.42;14.57;;;;;;;;;;5135406;27;20046;-51
2021/03/26 08:28:28;;;;;;;20.77;14.70;;;;;;;;;;5135190;27;20053;-55
2021/03/26 08:31:10;;;;;;;27.85;15.35;;;;;;;;;;5138828;27;20034;-51
2021/03/26 08:34:06;;;;;;;21.60;15.27;;;;;;;;;;5133618;27;20489;-53
2021/03/26 08:36:42;;;;;;;19.92;14.93;;;;;;;;;;5134488;27;20896;-56
2021/03/26 08:39:27;;;;;;;20.20;14.20;;;;;;;;;;5134146;27;20043;-56
2021/03/26 08:42:08;;;;;;;18.73;14.88;;;;;;;;;;5129893;27;20110;-55
2021/03/26 08:44:35;;;;;;;19.65;15.23;;;;;;;;;;5133909;27;20079;-54
2021/03/26 08:47:04;;;;;;;23.73;15.45;;;;;;;;;;5132883;27;20030;-54
2021/03/26 08:49:43;;;;;;;23.25;15.88;;;;;;;;;;5133086;27;20028;-54
2021/03/26 08:52:17;;;;;;;23.83;16.80;;;;;;;;;;5133171;27;20023;-55
2021/03/26 08:55:27;;;;;;;26.63;16.35;;;;;;;;;;5133441;27;20039;-53
2021/03/26 08:58:28;;;;;;;25.30;17.88;;;;;;;;;;5133157;27;20027;-55
2021/03/26 09:01:21;;;;;;;25.02;17.10;;;;;;;;;;5135635;27;20096;-55
2021/03/26 09:04:11;;;;;;;21.13;17.60;;;;;;;;;;5136582;27;20035;-55
2021/03/26 09:07:02;;;;;;;24.30;19.80;;;;;;;;;;5135014;27;20095;-55
2021/03/26 09:09:42;;;;;;;;;;;;;;;;;;5135131;27;20027;-53
2021/03/26 09:12:29;;;;;;;21.98;16.92;;;;;;;;;;5133431;27;19914;-50
2021/03/26 09:14:58;;;;;;;27.02;17.05;;;;;;;;;;5133517;27;20039;-53
2021/03/26 09:17:29;;;;;;;27.27;16.90;;;;;;;;;;5134531;27;20439;-54
2021/03/26 09:20:17;;;;;;;26.42;17.45;;;;;;;;;;5133959;27;20031;-52
2021/03/26 09:22:55;;;;;;;30.73;17.80;;;;;;;;;;5122249;27;20053;-55
2021/03/26 09:25:34;;;;;;;26.33;16.65;;;;;;;;;;5136674;27;20044;-53
2021/03/26 09:28:07;;;;;;;21.08;15.88;;;;;;;;;;5133707;27;20426;-52
2021/03/26 09:30:54;;;;;;;24.80;18.25;;;;;;;;;;5133959;27;20524;-56
2021/03/26 09:33:20;;;;;;;21.17;17.00;;;;;;;;;;5137377;27;20406;-56
2021/03/26 09:36:00;;;;;;;22.70;16.33;;;;;;;;;;5134313;27;20050;-53
2021/03/26 09:38:52;;;;;;;26.73;17.42;;;;;;;;;;5134018;27;20038;-54
2021/03/26 09:41:24;;;;;;;24.30;15.48;;;;;;;;;;5136826;27;20067;-56
2021/03/26 09:44:05;;;;;;;20.17;16.52;;;;;;;;;;5136369;27;20049;-55
2021/03/26 09:46:41;;;;;;;25.20;17.42;;;;;;;;;;5135083;27;20026;-56
2021/03/26 09:49:07;;;;;;;25.88;19.13;;;;;;;;;;5132558;27;20471;-52
2021/03/26 09:51:44;;;;;;;28.63;18.10;;;;;;;;;;5132701;27;20035;-54
2021/03/26 09:54:19;;;;;;;37.45;17.63;;;;;;;;;;5135676;27;20039;-55
2021/03/26 09:57:15;;;;;;;19.02;15.45;;;;;;;;;;5132219;27;20031;-55
2021/03/26 09:59:56;;;;;;;18.20;15.43;;;;;;;;;;5132191;27;20410;-55
2021/03/26 10:02:38;;;;;;;19.92;15.68;;;;;;;;;;5132307;27;20361;-53
2021/03/26 10:05:20;;;;;;;25.20;16.95;;;;;;;;;;5134896;27;20091;-54
2021/03/26 10:07:51;;;;;;;25.60;15.02;;;;;;;;;;5134310;27;20042;-53
2021/03/26 10:12:55;;;;;;;21.42;14.68;;;;;;;;;;5133611;27;20034;-53
2021/03/26 10:15:31;;;;;;;30.20;17.55;;;;;;;;;;5133024;27;20027;-56
2021/03/26 10:17:56;;;;;;;22.25;16.77;;;;;;;;;;5130847;27;20460;-54
2021/03/26 10:20:38;;;;;;;26.45;18.40;;;;;;;;;;5130633;27;20160;-54
2021/03/26 10:23:25;;;;;;;25.38;16.70;;;;;;;;;;5130842;27;20138;-54
2021/03/26 10:26:12;;;;;;;24.35;15.82;;;;;;;;;;5131319;27;20110;-54
2021/03/26 10:28:44;;;;;;;20.33;14.95;;;;;;;;;;5130569;27;20023;-55
2021/03/26 10:31:13;;;;;;;16.85;13.48;;;;;;;;;;5113494;27;20054;-53
2021/03/26 10:33:48;;;;;;;16.35;13.27;;;;;;;;;;5133605;27;20726;-55
2021/03/26 10:36:23;;;;;;;20.70;15.70;;;;;;;;;;5132207;27;20052;-56
2021/03/26 10:38:55;;;;;;;19.52;13.95;;;;;;;;;;5135731;27;20081;-54
2021/03/26 10:41:45;;;;;;;19.27;12.45;;;;;;;;;;5134155;27;20034;-54
2021/03/26 10:44:21;;;;;;;17.45;11.68;;;;;;;;;;5131853;27;20054;-53
2021/03/26 10:47:16;;;;;;;15.35;10.45;;;;;;;;;;5131735;27;20492;-54
2021/03/26 10:49:50;;;;;;;15.98;12.65;;;;;;;;;;5117959;27;20051;-55
2021/03/26 10:52:30;;;;;;;17.45;13.07;;;;;;;;;;5131756;27;20027;-53
2021/03/26 10:55:02;;;;;;;15.17;10.30;;;;;;;;;;5131932;27;20122;-54
2021/03/26 10:57:44;;;;;;;14.35;11.30;;;;;;;;;;5130893;27;20427;-55
2021/03/26 11:00:32;;;;;;;13.32;10.68;;;;;;;;;;5131399;27;20212;-56
2021/03/26 11:03:05;;;;;;;14.98;11.45;;;;;;;;;;5132823;27;20075;-53
2021/03/26 11:05:33;;;;;;;14.10;8.85;;;;;;;;;;5123649;27;20037;-53
2021/03/26 11:07:59;;;;;;;14.50;9.60;;;;;;;;;;5132053;27;20096;-54
2021/03/26 11:10:29;;;;;;;13.60;11.30;;;;;;;;;;5131800;27;20035;-54
2021/03/26 11:13:02;;;;;;;14.65;11.07;;;;;;;;;;5133414;27;20039;-54
2021/03/26 11:15:32;;;;;;;14.07;10.00;;;;;;;;;;5132204;27;20087;-54
2021/03/26 11:18:17;;;;;;;14.20;10.73;;;;;;;;;;5113305;27;20039;-54
2021/03/26 11:20:48;;;;;;;16.05;11.13;;;;;;;;;;5130781;27;20097;-50
2021/03/26 11:23:26;;;;;;;13.98;9.57;;;;;;;;;;5131968;27;20118;-52
2021/03/26 11:26:05;;;;;;;10.25;6.22;;;;;;;;;;5130727;27;20031;-55
2021/03/26 11:28:39;;;;;;;10.02;5.60;;;;;;;;;;5129944;27;20027;-55
2021/03/26 11:31:08;;;;;;;10.07;8.00;;;;;;;;;;5133353;27;20043;-53
2021/03/26 11:33:53;;;;;;;13.35;9.35;;;;;;;;;;5133746;27;20037;-56
2021/03/26 11:36:43;;;;;;;12.40;7.85;;;;;;;;;;5114941;27;20046;-55
2021/03/26 11:39:11;;;;;;;12.52;7.18;;;;;;;;;;5133490;27;20084;-52
2021/03/26 11:41:42;;;;;;;13.27;8.20;;;;;;;;;;5130243;27;20042;-55
2021/03/26 11:44:12;;;;;;;12.13;7.68;;;;;;;;;;5130781;27;20035;-55
2021/03/26 11:46:42;;;;;;;14.40;7.90;;;;;;;;;;5135071;27;20034;-55
2021/03/26 11:49:23;;;;;;;10.10;6.35;;;;;;;;;;5135502;27;20043;-54
2021/03/26 11:52:15;;;;;;;8.15;5.78;;;;;;;;;;5135117;27;20610;-52
2021/03/26 11:54:49;;;;;;;11.25;7.32;;;;;;;;;;5134477;27;20031;-55
2021/03/26 11:57:27;;;;;;;16.33;7.18;;;;;;;;;;5134593;27;20039;-55
2021/03/26 12:00:14;;;;;;;10.93;6.60;;;;;;;;;;5138016;27;20092;-54
2021/03/26 12:02:51;;;;;;;9.52;7.22;;;;;;;;;;5140037;27;20099;-55
2021/03/26 12:05:22;;;;;;;18.90;8.13;;;;;;;;;;5135467;27;20476;-55
2021/03/26 12:07:54;;;;;;;10.18;7.50;;;;;;;;;;5139610;27;20039;-55
2021/03/26 12:10:33;;;;;;;13.10;8.02;;;;;;;;;;5140492;27;20058;-55
2021/03/26 12:13:07;;;;;;;11.57;8.10;;;;;;;;;;5136873;27;20559;-53
2021/03/26 12:15:39;;;;;;;12.23;7.07;;;;;;;;;;5134429;27;20038;-55
2021/03/26 12:18:42;;;;;;;10.82;8.13;;;;;;;;;;5137080;27;20460;-56
2021/03/26 12:21:29;;;;;;;13.50;8.30;;;;;;;;;;5132191;27;20039;-56
2021/03/26 12:24:14;;;;;;;12.63;8.85;;;;;;;;;;5131417;27;20031;-56
2021/03/26 12:26:58;;;;;;;11.65;8.15;;;;;;;;;;5114106;27;20408;-57
2021/03/26 12:30:05;;;;;;;9.77;7.28;;;;;;;;;;5139069;27;20039;-54
2021/03/26 12:32:41;;;;;;;13.70;7.65;;;;;;;;;;5107429;27;20063;-54
2021/03/26 12:35:24;;;;;;;12.38;8.52;;;;;;;;;;5133222;27;20601;-55
2021/03/26 12:38:08;;;;;;;12.40;8.40;;;;;;;;;;5139221;27;20375;-54
2021/03/26 12:40:46;;;;;;;11.45;8.32;;;;;;;;;;5132229;27;20471;-52
2021/03/26 12:43:29;;;;;;;12.50;8.48;;;;;;;;;;5133631;27;20118;-53
2021/03/26 12:46:01;;;;;;;11.52;7.35;;;;;;;;;;5133586;27;20035;-49
2021/03/26 12:48:35;;;;;;;12.40;8.30;;;;;;;;;;5133547;27;20031;-54
2021/03/26 12:51:09;;;;;;;13.15;8.38;;;;;;;;;;5133644;27;20031;-53
2021/03/26 12:53:44;;;;;;;14.88;8.50;;;;;;;;;;5133464;27;20079;-55
2021/03/26 12:56:20;;;;;;;13.00;7.75;;;;;;;;;;5136577;27;20023;-54
2021/03/26 12:59:10;;;;;;;13.07;7.88;;;;;;;;;;5142443;27;20031;-55
2021/03/26 13:01:37;;;;;;;15.15;8.52;;;;;;;;;;5140813;27;20065;-54
2021/03/26 13:04:16;;;;;;;14.25;8.68;;;;;;;;;;5132146;27;20031;-52
2021/03/26 13:06:47;;;;;;;12.45;7.95;;;;;;;;;;5134031;27;20043;-51
2021/03/26 13:09:18;;;;;;;;;;;;;;;;;;5134727;27;20031;-54
2021/03/26 13:11:47;;;;;;;14.02;8.30;;;;;;;;;;5139531;27;19916;-55
2021/03/26 13:14:22;;;;;;;12.07;8.55;;;;;;;;;;5135959;27;20038;-55
2021/03/26 13:16:48;;;;;;;10.95;7.55;;;;;;;;;;5133690;27;20031;-54
2021/03/26 13:19:20;;;;;;;12.52;8.10;;;;;;;;;;5137970;27;20039;-55
2021/03/26 13:22:10;;;;;;;9.80;7.32;;;;;;;;;;5133632;27;20097;-51
2021/03/26 13:24:38;;;;;;;12.65;8.40;;;;;;;;;;5133885;27;20110;-52
2021/03/26 13:27:19;;;;;;;10.75;7.55;;;;;;;;;;5116977;27;20027;-52
2021/03/26 13:30:11;;;;;;;9.30;7.25;;;;;;;;;;5134818;27;20028;-53
2021/03/26 13:32:55;;;;;;;11.55;7.88;;;;;;;;;;5134719;27;20035;-53
2021/03/26 13:35:39;;;;;;;10.82;7.03;;;;;;;;;;5133670;27;20062;-53
2021/03/26 13:38:31;;;;;;;15.52;7.45;;;;;;;;;;5132870;27;20522;-53
2021/03/26 13:40:59;;;;;;;14.40;10.10;;;;;;;;;;5119739;27;20464;-53
2021/03/26 13:43:47;;;;;;;11.10;7.95;;;;;;;;;;5137810;27;20038;-51
2021/03/26 13:46:24;;;;;;;10.73;6.97;;;;;;;;;;5134686;27;20062;-51
2021/03/26 13:48:50;;;;;;;12.50;6.97;;;;;;;;;;5129673;27;20127;-53
2021/03/26 13:51:17;;;;;;;9.35;7.68;;;;;;;;;;5132405;27;20118;-54
2021/03/26 13:53:51;;;;;;;9.85;6.78;;;;;;;;;;5132133;27;20066;-55
2021/03/26 13:56:22;;;;;;;7.97;6.53;;;;;;;;;;5132220;27;20031;-52
2021/03/26 13:58:53;;;;;;;14.63;7.30;;;;;;;;;;5133945;27;20027;-52
2021/03/26 14:01:25;;;;;;;14.85;6.82;;;;;;;;;;5142357;27;20042;-56
2021/03/26 14:03:58;;;;;;;13.60;6.85;;;;;;;;;;5138037;27;20027;-55
2021/03/26 14:06:29;;;;;;;14.85;7.18;;;;;;;;;;5139234;27;20031;-56
2021/03/26 14:08:58;;;;;;;12.32;7.97;;;;;;;;;;5135748;27;20031;-56
2021/03/26 14:11:34;;;;;;;10.98;7.80;;;;;;;;;;5133202;27;20448;-56
2021/03/26 14:14:15;;;;;;;12.00;8.63;;;;;;;;;;5132409;27;20027;-56
2021/03/26 14:16:54;;;;;;;11.30;8.10;;;;;;;;;;5133241;27;20039;-55
2021/03/26 14:19:57;;;;;;;10.27;7.85;;;;;;;;;;5131644;27;20030;-56
2021/03/26 14:22:36;;;;;;;11.18;8.38;;;;;;;;;;5135202;27;20045;-56
2021/03/26 14:25:22;;;;;;;12.73;7.93;;;;;;;;;;5136307;27;20060;-56
2021/03/26 14:27:51;;;;;;;11.75;7.60;;;;;;;;;;5131539;27;20126;-57
2021/03/26 14:30:19;;;;;;;12.52;8.40;;;;;;;;;;5133001;27;20039;-49
2021/03/26 14:33:05;;;;;;;14.95;7.25;;;;;;;;;;5136346;27;20038;-54
2021/03/26 14:35:39;;;;;;;9.70;7.20;;;;;;;;;;5135427;27;20031;-53
2021/03/26 14:38:29;;;;;;;12.68;7.13;;;;;;;;;;5131567;27;20054;-54
2021/03/26 14:41:19;;;;;;;12.30;7.68;;;;;;;;;;5130078;27;20023;-55
2021/03/26 14:43:47;;;;;;;9.73;6.72;;;;;;;;;;5128684;27;20038;-53
2021/03/26 14:46:15;;;;;;;12.70;7.10;;;;;;;;;;5128233;27;20563;-55
2021/03/26 14:48:49;;;;;;;9.63;6.75;;;;;;;;;;5127960;27;20035;-55
2021/03/26 14:51:30;;;;;;;17.45;7.30;;;;;;;;;;5128403;27;20023;-55
2021/03/26 14:54:05;;;;;;;11.48;7.28;;;;;;;;;;5130497;27;20058;-52
2021/03/26 14:56:37;;;;;;;14.00;6.93;;;;;;;;;;5130729;27;20027;-49
2021/03/26 14:59:12;;;;;;;12.55;6.65;;;;;;;;;;5131218;27;20038;-55
2021/03/26 15:01:41;;;;;;;15.48;7.45;;;;;;;;;;5132974;27;20463;-52
2021/03/26 15:04:24;;;;;;;12.38;6.43;;;;;;;;;;5139900;27;20402;-54
2021/03/26 15:07:02;;;;;;;9.77;7.15;;;;;;;;;;5137080;27;20046;-50
2021/03/26 15:09:34;;;;;;;9.77;6.78;;;;;;;;;;5137807;27;20035;-55
2021/03/26 15:12:12;;;;;;;10.52;6.78;;;;;;;;;;5134232;27;20038;-54
2021/03/26 15:14:56;;;;;;;10.70;6.60;;;;;;;;;;5131000;27;20027;-54
2021/03/26 15:17:33;;;;;;;8.80;7.07;;;;;;;;;;5130464;27;20031;-53
2021/03/26 15:20:01;;;;;;;11.63;6.32;;;;;;;;;;5130453;27;20023;-55
2021/03/26 15:22:44;;;;;;;10.40;6.25;;;;;;;;;;5130781;27;20057;-55
2021/03/26 15:25:31;;;;;;;10.35;7.03;;;;;;;;;;5130975;27;20042;-54
2021/03/26 15:27:56;;;;;;;11.55;7.20;;;;;;;;;;5130585;27;20039;-52
2021/03/26 15:30:29;;;;;;;10.30;6.07;;;;;;;;;;5130190;27;20528;-51
2021/03/26 15:33:17;;;;;;;11.95;6.45;;;;;;;;;;5130933;27;20070;-50
2021/03/26 15:36:15;;;;;;;10.65;6.10;;;;;;;;;;5131929;27;20058;-54
2021/03/26 15:38:58;;;;;;;10.90;6.00;;;;;;;;;;5123613;27;20076;-54
2021/03/26 15:41:39;;;;;;;11.55;6.60;;;;;;;;;;5130293;27;20444;-55
2021/03/26 15:44:16;;;;;;;13.05;6.60;;;;;;;;;;5130723;27;20031;-54